Time;durP1;ratioP1;P1;durP2;ratioP2;P2;SDS_P1;SDS_P2;PMS_P1;PMS_P2;Temp;Humidity;BMP_temperature;BMP_pressure;BME280_temperature;BME280_humidity;BME280_pressure;Samples;Min_cycle;Max_cycle;Signal;HPM_P1;HPM_P2
2022/07/05 00:00:46;;;;;;;9.43;5.23;;;19.40;99.90;;;;;;4992510;28;20210;-87
2022/07/05 00:03:12;;;;;;;7.03;5.40;;;19.30;99.90;;;;;;4976391;28;20217;-85
2022/07/05 00:05:38;;;;;;;10.13;6.53;;;19.30;99.90;;;;;;4991494;28;20954;-86
2022/07/05 00:08:04;;;;;;;7.73;6.50;;;19.30;99.90;;;;;;4976551;28;20204;-85
2022/07/05 00:10:31;;;;;;;7.73;5.57;;;19.20;99.90;;;;;;4975382;28;20218;-88
2022/07/05 00:12:57;;;;;;;7.33;6.63;;;19.20;99.90;;;;;;4992528;28;20443;-85
2022/07/05 00:15:22;;;;;;;8.23;6.47;;;19.20;99.90;;;;;;4992404;28;20822;-87
2022/07/05 00:17:48;;;;;;;8.20;6.77;;;19.10;99.90;;;;;;4986863;28;20206;-85
2022/07/05 00:20:14;;;;;;;12.47;6.10;;;19.10;99.90;;;;;;4994593;28;20243;-85
2022/07/05 00:22:39;;;;;;;7.73;6.37;;;19.10;99.90;;;;;;4995054;28;20248;-85
2022/07/05 00:25:05;;;;;;;10.50;6.93;;;19.00;99.90;;;;;;4995169;28;20539;-86
2022/07/05 00:27:31;;;;;;;7.93;6.67;;;19.00;99.90;;;;;;4994807;28;20193;-85
2022/07/05 00:29:56;;;;;;;7.43;6.73;;;18.90;99.90;;;;;;4994579;28;20678;-85
2022/07/05 00:32:22;;;;;;;7.70;6.97;;;18.90;99.90;;;;;;4995664;28;20241;-87
2022/07/05 00:34:47;;;;;;;11.23;6.97;;;18.80;99.90;;;;;;4991959;28;20579;-86
2022/07/05 00:37:13;;;;;;;9.63;7.20;;;18.80;99.90;;;;;;4994909;28;20216;-87
2022/07/05 00:39:39;;;;;;;10.87;7.60;;;18.70;99.90;;;;;;4990322;28;20251;-85
2022/07/05 00:42:04;;;;;;;7.50;6.80;;;18.70;99.90;;;;;;4976046;28;20570;-85
2022/07/05 00:44:36;;;;;;;8.50;6.87;;;18.60;99.90;;;;;;4974209;28;20192;-85
2022/07/05 00:47:04;;;;;;;9.07;7.50;;;18.70;99.90;;;;;;4991555;28;20195;-85
2022/07/05 00:49:30;;;;;;;8.70;7.17;;;18.60;99.90;;;;;;4990499;28;20560;-85
2022/07/05 00:51:56;;;;;;;8.70;6.83;;;18.70;99.90;;;;;;4995924;28;20861;-85
2022/07/05 00:54:22;;;;;;;8.03;7.10;;;18.70;99.90;;;;;;4996774;28;20578;-86
2022/07/05 00:56:48;;;;;;;8.20;7.40;;;18.70;99.90;;;;;;4993770;28;20524;-85
2022/07/05 00:59:14;;;;;;;8.13;7.07;;;18.60;99.90;;;;;;4994964;28;20231;-86
2022/07/05 01:01:39;;;;;;;8.20;7.40;;;18.60;99.90;;;;;;4992755;28;20215;-87
2022/07/05 01:04:05;;;;;;;9.10;7.10;;;18.60;99.90;;;;;;4993198;28;20426;-86
2022/07/05 01:06:30;;;;;;;7.43;6.73;;;18.60;99.90;;;;;;4992882;28;20196;-85
2022/07/05 01:08:56;;;;;;;9.50;7.40;;;18.50;99.90;;;;;;4977257;28;20179;-86
2022/07/05 01:11:22;;;;;;;9.63;7.60;;;18.50;99.90;;;;;;4994217;28;20591;-85
2022/07/05 01:13:47;;;;;;;8.20;7.40;;;18.50;99.90;;;;;;4993583;28;20446;-85
2022/07/05 01:16:16;;;;;;;9.77;7.53;;;18.50;99.90;;;;;;4993384;28;20439;-85
2022/07/05 01:18:44;;;;;;;11.70;7.43;;;18.40;99.90;;;;;;4992131;28;20212;-85
2022/07/05 01:21:13;;;;;;;9.33;7.97;;;18.40;99.90;;;;;;4992861;28;20457;-85
2022/07/05 01:23:39;;;;;;;9.23;7.67;;;18.40;99.90;;;;;;4993742;28;20431;-86
2022/07/05 01:26:06;;;;;;;7.77;7.00;;;18.40;99.90;;;;;;4974811;28;20431;-86
2022/07/05 01:28:32;;;;;;;9.63;6.93;;;18.40;99.90;;;;;;4992467;28;20441;-85
2022/07/05 01:31:00;;;;;;;8.30;7.50;;;18.40;99.90;;;;;;4993683;28;20455;-85
2022/07/05 01:33:30;;;;;;;8.40;7.23;;;18.40;99.90;;;;;;4992264;28;20197;-86
2022/07/05 01:35:57;;;;;;;8.50;7.10;;;18.40;99.90;;;;;;4992181;28;20527;-85
2022/07/05 01:38:23;;;;;;;8.50;7.70;;;18.40;99.90;;;;;;4992799;28;20518;-86
2022/07/05 01:40:52;;;;;;;10.03;7.17;;;18.40;99.90;;;;;;4991439;28;20469;-86
2022/07/05 01:43:19;;;;;;;9.33;6.90;;;18.40;99.90;;;;;;4993198;28;20443;-85
2022/07/05 01:45:46;;;;;;;7.90;6.30;;;18.40;99.90;;;;;;4991986;28;20432;-86
2022/07/05 01:48:14;;;;;;;8.83;8.03;;;18.30;99.90;;;;;;4993287;28;20951;-85
2022/07/05 01:50:50;;;;;;;9.40;7.53;;;18.30;99.90;;;;;;4991238;28;20478;-86
2022/07/05 01:53:19;;;;;;;9.43;8.00;;;18.30;99.90;;;;;;4991272;28;20443;-84
2022/07/05 01:55:45;;;;;;;10.30;8.73;;;18.30;99.90;;;;;;4995833;28;20772;-85
2022/07/05 01:58:11;;;;;;;9.67;8.17;;;18.30;99.90;;;;;;4980383;28;20474;-87
2022/07/05 02:00:51;;;;;;;9.50;8.30;;;18.30;99.90;;;;;;4996699;28;20462;-85
2022/07/05 02:03:17;;;;;;;9.37;7.87;;;18.20;99.90;;;;;;4995516;28;20454;-85
2022/07/05 02:05:44;;;;;;;7.77;6.77;;;18.20;99.90;;;;;;4996463;28;20445;-86
2022/07/05 02:08:10;;;;;;;8.70;6.80;;;18.20;99.90;;;;;;4997542;28;20450;-87
2022/07/05 02:10:37;;;;;;;8.70;7.73;;;18.20;99.90;;;;;;4998465;28;20485;-87
2022/07/05 02:13:03;;;;;;;8.40;7.47;;;18.30;99.90;;;;;;4993897;28;20446;-85
2022/07/05 02:15:34;;;;;;;10.13;7.00;;;18.30;99.90;;;;;;4993955;28;20497;-88
2022/07/05 02:18:00;;;;;;;9.87;8.83;;;18.30;99.90;;;;;;4993069;28;20467;-85
2022/07/05 02:20:26;;;;;;;10.77;7.40;;;18.40;99.90;;;;;;4995849;28;20459;-87
2022/07/05 02:22:52;;;;;;;10.00;7.70;;;18.40;99.90;;;;;;4994072;28;20432;-85
2022/07/05 02:25:18;;;;;;;9.83;7.70;;;18.40;99.90;;;;;;5000427;28;20475;-85
2022/07/05 02:27:44;;;;;;;8.13;7.30;;;18.40;99.90;;;;;;4996222;28;20559;-85
2022/07/05 02:30:09;;;;;;;8.80;7.90;;;18.40;99.90;;;;;;4997807;28;20208;-87
2022/07/05 02:32:35;;;;;;;8.30;7.10;;;18.40;99.90;;;;;;4993912;28;20584;-85
2022/07/05 02:35:02;;;;;;;8.50;7.70;;;18.40;99.90;;;;;;4995861;28;20464;-85
2022/07/05 02:37:28;;;;;;;7.30;6.70;;;18.40;99.90;;;;;;4979412;28;20222;-86
2022/07/05 02:39:54;;;;;;;8.77;7.80;;;18.30;99.90;;;;;;4979796;28;21128;-85
2022/07/05 02:42:20;;;;;;;9.00;7.80;;;18.30;99.90;;;;;;4996304;28;20718;-85
2022/07/05 02:44:45;;;;;;;8.40;7.10;;;18.20;99.90;;;;;;4996463;28;20439;-85
2022/07/05 02:47:11;;;;;;;8.77;7.93;;;18.20;99.90;;;;;;4979834;28;20543;-86
2022/07/05 02:49:37;;;;;;;9.50;7.33;;;18.20;99.90;;;;;;4978552;28;20265;-87
2022/07/05 02:52:02;;;;;;;8.50;7.40;;;18.20;99.90;;;;;;4994401;28;20198;-84
2022/07/05 02:54:28;;;;;;;9.27;8.13;;;18.10;99.90;;;;;;4996811;28;20207;-86
2022/07/05 02:56:53;;;;;;;13.17;7.97;;;18.10;99.90;;;;;;4994410;28;20682;-85
2022/07/05 02:59:19;;;;;;;9.47;8.60;;;18.00;99.90;;;;;;4996595;28;20219;-85
2022/07/05 03:01:44;;;;;;;10.70;8.77;;;18.00;99.90;;;;;;4995366;28;20186;-86
2022/07/05 03:04:10;;;;;;;10.23;7.80;;;17.90;1.00;;;;;;4995737;28;20188;-86
2022/07/05 03:06:36;;;;;;;9.10;8.20;;;17.90;1.00;;;;;;4995378;28;20203;-85
2022/07/05 03:09:02;;;;;;;9.60;8.00;;;17.90;1.00;;;;;;4976917;28;20180;-83
2022/07/05 03:11:28;;;;;;;11.60;8.40;;;17.90;1.00;;;;;;4994550;28;20450;-84
2022/07/05 03:13:53;;;;;;;11.27;8.30;;;17.90;1.00;;;;;;4993505;28;20207;-87
2022/07/05 03:16:19;;;;;;;8.83;8.00;;;17.90;1.00;;;;;;4978731;28;20185;-85
2022/07/05 03:18:44;;;;;;;12.93;8.70;;;18.00;1.00;;;;;;4993812;28;20213;-85
2022/07/05 03:21:10;;;;;;;9.73;8.10;;;17.90;1.00;;;;;;4995003;28;20298;-85
2022/07/05 03:23:36;;;;;;;9.30;8.07;;;17.90;1.00;;;;;;4993950;28;20211;-85
2022/07/05 03:26:01;;;;;;;9.13;8.03;;;17.90;1.00;;;;;;4995169;28;20715;-86
2022/07/05 03:28:27;;;;;;;9.97;9.07;;;17.90;1.00;;;;;;4995975;28;20438;-85
2022/07/05 03:30:52;;;;;;;10.07;9.07;;;17.90;1.00;;;;;;4994658;28;20211;-85
2022/07/05 03:33:18;;;;;;;11.83;9.27;;;17.80;1.00;;;;;;4978278;28;20188;-85
2022/07/05 03:35:43;;;;;;;10.13;8.40;;;17.80;1.00;;;;;;4978038;28;20211;-86
2022/07/05 03:38:09;;;;;;;11.30;8.47;;;17.80;1.00;;;;;;4994990;28;20221;-85
2022/07/05 03:40:34;;;;;;;11.03;8.60;;;17.80;1.00;;;;;;4994985;28;20202;-85
2022/07/05 03:43:00;;;;;;;9.77;8.87;;;17.80;1.00;;;;;;4994702;28;20708;-87
2022/07/05 03:45:25;;;;;;;9.40;8.27;;;17.80;1.00;;;;;;4978813;28;20258;-85
2022/07/05 03:47:51;;;;;;;10.60;9.17;;;17.80;1.00;;;;;;4993749;28;20250;-85
2022/07/05 03:50:18;;;;;;;7.87;7.10;;;17.80;1.00;;;;;;4994380;28;20320;-86
2022/07/05 03:52:43;;;;;;;13.57;9.20;;;17.70;1.00;;;;;;4997118;28;20482;-87
2022/07/05 03:55:09;;;;;;;11.37;9.50;;;17.70;1.00;;;;;;4978503;28;20205;-86
2022/07/05 03:57:34;;;;;;;10.40;8.63;;;17.70;1.00;;;;;;4995928;28;20236;-85
2022/07/05 04:00:00;;;;;;;9.80;8.90;;;17.80;1.00;;;;;;4998695;28;20200;-86
2022/07/05 04:02:26;;;;;;;12.33;8.47;;;17.80;1.00;;;;;;4997323;28;20192;-85
2022/07/05 04:04:51;;;;;;;9.50;8.27;;;17.80;1.00;;;;;;4997178;28;20212;-85
2022/07/05 04:07:17;;;;;;;10.13;8.57;;;17.90;1.00;;;;;;4983461;28;20267;-85
2022/07/05 04:09:42;;;;;;;8.43;7.63;;;17.90;1.00;;;;;;4991218;28;20212;-86
2022/07/05 04:12:08;;;;;;;9.87;8.60;;;18.00;1.00;;;;;;4993387;28;20195;-87
2022/07/05 04:14:34;;;;;;;11.00;7.80;;;18.00;1.00;;;;;;4994792;28;20190;-86
2022/07/05 04:17:00;;;;;;;8.90;8.10;;;18.00;1.00;;;;;;4989373;28;20186;-85
2022/07/05 04:19:26;;;;;;;9.60;8.63;;;18.00;1.00;;;;;;4994593;28;20448;-85
2022/07/05 04:21:51;;;;;;;9.80;7.77;;;18.00;1.00;;;;;;4994280;28;20185;-85
2022/07/05 04:24:17;;;;;;;10.17;8.20;;;18.00;1.00;;;;;;4993494;28;20196;-86
2022/07/05 04:26:42;;;;;;;9.90;8.90;;;18.00;1.00;;;;;;4994904;28;20181;-85
2022/07/05 04:29:08;;;;;;;13.53;9.00;;;18.00;1.00;;;;;;4996835;28;20185;-86
2022/07/05 04:31:34;;;;;;;9.80;8.73;;;18.00;1.00;;;;;;4996463;28;20232;-85
2022/07/05 04:34:00;;;;;;;10.57;9.47;;;18.10;1.00;;;;;;4992689;28;20184;-85
2022/07/05 04:36:26;;;;;;;10.30;9.30;;;18.10;1.00;;;;;;4994723;28;20508;-87
2022/07/05 04:38:51;;;;;;;9.50;8.60;;;18.10;1.00;;;;;;4978307;28;20216;-85
2022/07/05 04:41:17;;;;;;;11.50;8.43;;;18.10;1.00;;;;;;4994484;28;20199;-85
2022/07/05 04:43:42;;;;;;;10.20;8.33;;;18.20;1.00;;;;;;4978488;28;20186;-86
2022/07/05 04:46:08;;;;;;;9.67;8.77;;;18.20;1.00;;;;;;4992400;28;20184;-85
2022/07/05 04:48:33;;;;;;;12.77;9.17;;;18.20;1.00;;;;;;4990766;28;20187;-85
2022/07/05 04:50:59;;;;;;;10.40;9.30;;;18.20;1.00;;;;;;4992260;28;20268;-85
2022/07/05 04:53:25;;;;;;;10.17;9.17;;;18.30;1.00;;;;;;4994399;28;20185;-85
2022/07/05 04:55:50;;;;;;;9.53;8.40;;;18.30;1.00;;;;;;4993757;28;20194;-85
2022/07/05 04:58:16;;;;;;;10.40;9.40;;;18.30;1.00;;;;;;4978369;28;20305;-85
2022/07/05 05:00:41;;;;;;;11.30;8.83;;;18.40;1.00;;;;;;4993302;28;20244;-85
2022/07/05 05:03:07;;;;;;;11.77;9.87;;;18.40;1.00;;;;;;4993935;28;20194;-86
2022/07/05 05:05:32;;;;;;;11.27;9.93;;;18.50;1.00;;;;;;4978220;28;20197;-86
2022/07/05 05:07:58;;;;;;;11.60;9.80;;;18.60;1.00;;;;;;4991649;28;20227;-86
2022/07/05 05:10:24;;;;;;;24.53;10.60;;;18.60;1.00;;;;;;4977285;28;20242;-85
2022/07/05 05:12:49;;;;;;;14.03;11.03;;;18.70;1.00;;;;;;4975893;28;20570;-85
2022/07/05 05:15:15;;;;;;;11.30;10.20;;;18.70;1.00;;;;;;4993202;28;20191;-85
2022/07/05 05:17:42;;;;;;;11.37;10.27;;;18.80;1.00;;;;;;4975831;28;20239;-84
2022/07/05 05:20:16;;;;;;;11.97;10.67;;;18.90;1.00;;;;;;4975270;28;20769;-85
2022/07/05 05:22:42;;;;;;;12.30;10.13;;;19.00;1.00;;;;;;4992110;28;20440;-85
2022/07/05 05:25:09;;;;;;;11.50;10.27;;;19.00;1.00;;;;;;4989244;28;20437;-85
2022/07/05 05:27:39;;;;;;;9.90;9.00;;;19.00;1.00;;;;;;4991951;28;20460;-86
2022/07/05 05:30:06;;;;;;;10.50;9.50;;;19.10;1.00;;;;;;4976171;28;20494;-85
2022/07/05 05:32:31;;;;;;;9.70;8.80;;;19.20;99.90;;;;;;4997635;28;20588;-87
2022/07/05 05:34:57;;;;;;;10.80;9.37;;;19.30;99.90;;;;;;4995839;28;20460;-85
2022/07/05 05:37:22;;;;;;;9.40;8.50;;;19.40;99.90;;;;;;4983781;28;20212;-86
2022/07/05 05:39:48;;;;;;;10.23;9.20;;;19.50;99.90;;;;;;4980775;28;20564;-86
2022/07/05 05:42:13;;;;;;;13.03;10.30;;;19.50;99.90;;;;;;4999114;28;20190;-85
2022/07/05 05:44:39;;;;;;;10.00;8.07;;;19.60;99.90;;;;;;4984617;28;20187;-85
2022/07/05 05:47:05;;;;;;;13.00;10.00;;;19.70;99.90;;;;;;5000301;28;20229;-86
2022/07/05 05:49:30;;;;;;;10.70;9.67;;;19.80;99.90;;;;;;4995896;28;20217;-85
2022/07/05 05:51:56;;;;;;;10.50;9.60;;;19.90;99.90;;;;;;4995690;28;20190;-85
2022/07/05 05:54:21;;;;;;;10.57;9.47;;;20.00;99.90;;;;;;4995640;28;20182;-85
2022/07/05 05:56:47;;;;;;;14.87;9.40;;;20.10;99.90;;;;;;4979724;28;20278;-85
2022/07/05 05:59:12;;;;;;;12.73;9.70;;;20.20;99.90;;;;;;4989627;28;20225;-86
2022/07/05 06:01:38;;;;;;;15.60;9.27;;;20.20;99.90;;;;;;4989675;28;20189;-86
2022/07/05 06:04:04;;;;;;;10.20;9.30;;;20.30;99.90;;;;;;4993454;28;20306;-86
2022/07/05 06:06:29;;;;;;;9.47;8.33;;;20.40;99.90;;;;;;4999719;28;20269;-85
2022/07/05 06:08:55;;;;;;;10.13;7.80;;;20.50;99.90;;;;;;5001507;28;20195;-87
2022/07/05 06:11:21;;;;;;;14.50;8.23;;;20.80;99.90;;;;;;5001091;28;20693;-86
2022/07/05 06:13:46;;;;;;;8.27;7.43;;;21.30;99.90;;;;;;5002446;28;20203;-87
2022/07/05 06:16:12;;;;;;;9.53;6.97;;;22.30;99.90;;;;;;4980548;28;20494;-85
2022/07/05 06:18:37;;;;;;;8.70;6.17;;;25.30;99.90;;;;;;4980117;28;20275;-86
2022/07/05 06:21:03;;;;;;;9.63;6.20;;;29.80;99.90;;;;;;4992657;28;20242;-84
2022/07/05 06:23:28;;;;;;;8.33;5.90;;;33.50;99.90;;;;;;4993457;28;20191;-84
2022/07/05 06:25:54;;;;;;;6.37;5.70;;;36.40;99.90;;;;;;4974754;28;20282;-84
2022/07/05 06:28:20;;;;;;;7.10;5.70;;;38.80;99.90;;;;;;4991883;28;20656;-85
2022/07/05 06:30:45;;;;;;;7.17;4.90;;;40.80;99.90;;;;;;4991368;28;20243;-86
2022/07/05 06:33:11;;;;;;;4.33;4.03;;;42.70;99.90;;;;;;4974652;28;20226;-84
2022/07/05 06:35:37;;;;;;;5.90;4.93;;;44.00;99.90;;;;;;4993342;28;20574;-85
2022/07/05 06:38:05;;;;;;;4.30;3.90;;;45.20;99.90;;;;;;4991720;28;20211;-86
2022/07/05 06:40:31;;;;;;;6.03;4.30;;;46.40;99.90;;;;;;4991085;28;20461;-85
2022/07/05 06:42:59;;;;;;;6.93;4.47;;;47.60;99.90;;;;;;4990690;28;20430;-86
2022/07/05 06:45:26;;;;;;;5.30;4.80;;;48.30;93.80;;;;;;4992651;28;20434;-85
2022/07/05 06:48:02;;;;;;;4.57;4.10;;;48.60;86.60;;;;;;4995173;28;20438;-86
2022/07/05 06:50:30;;;;;;;4.70;4.27;;;49.30;76.40;;;;;;5001921;28;20487;-84
2022/07/05 06:52:55;;;;;;;4.93;4.30;;;49.90;68.80;;;;;;4993251;28;20444;-86
2022/07/05 06:55:22;;;;;;;5.50;4.07;;;50.30;60.50;;;;;;4989295;28;20817;-87
2022/07/05 06:57:48;;;;;;;4.73;4.43;;;51.20;56.40;;;;;;4972069;28;20264;-86
2022/07/05 07:00:14;;;;;;;4.90;3.93;;;51.90;51.50;;;;;;4992688;28;20454;-87
2022/07/05 07:02:39;;;;;;;6.33;4.53;;;53.30;49.50;;;;;;4976244;28;20186;-86
2022/07/05 07:05:06;;;;;;;5.47;3.85;;;54.30;47.20;;;;;;4995022;28;20186;-84
2022/07/05 07:10:16;;;;;;;4.75;3.97;;;57.00;43.40;;;;;;4993831;28;20214;-86
2022/07/05 07:12:42;;;;;;;5.50;3.50;;;58.00;40.50;;;;;;4991516;28;20179;-86
2022/07/05 07:15:08;;;;;;;4.60;4.00;;;59.20;38.40;;;;;;4976835;28;20187;-86
2022/07/05 07:17:33;;;;;;;3.80;3.50;;;59.80;36.90;;;;;;4990914;28;20237;-86
2022/07/05 07:19:59;;;;;;;3.83;3.30;;;60.50;34.40;;;;;;4991222;28;20210;-85
2022/07/05 07:22:24;;;;;;;3.40;3.10;;;60.90;32.60;;;;;;4991549;28;20651;-85
2022/07/05 07:24:50;;;;;;;4.80;3.30;;;61.10;29.90;;;;;;4974771;28;20694;-87
2022/07/05 07:27:15;;;;;;;3.78;2.88;;;61.40;28.80;;;;;;4991328;28;20183;-86
2022/07/05 07:29:41;;;;;;;6.45;3.45;;;61.30;27.30;;;;;;4975648;28;20269;-85
2022/07/05 07:32:08;;;;;;;4.78;3.35;;;61.50;25.90;;;;;;4988553;28;20191;-86
2022/07/05 07:34:34;;;;;;;4.70;3.42;;;60.70;22.70;;;;;;4989647;28;20210;-86
2022/07/05 07:36:59;;;;;;;5.60;3.25;;;60.80;22.00;;;;;;4988470;28;20245;-86
2022/07/05 07:39:26;;;;;;;3.35;3.05;;;61.10;21.00;;;;;;4972540;28;20210;-86
2022/07/05 07:41:52;;;;;;;3.40;3.10;;;61.70;21.40;;;;;;4989365;28;20206;-86
2022/07/05 07:44:18;;;;;;;3.55;3.25;;;62.20;21.00;;;;;;4986742;28;20209;-86
2022/07/05 07:46:44;;;;;;;3.30;3.00;;;62.50;20.80;;;;;;4990532;28;20729;-85
2022/07/05 07:49:13;;;;;;;5.05;3.00;;;58.80;12.90;;;;;;4972262;28;20257;-85
2022/07/05 07:51:40;;;;;;;4.85;2.75;;;56.00;8.20;;;;;;4988455;28;20179;-86
2022/07/05 07:54:05;;;;;;;6.50;2.20;;;56.70;10.10;;;;;;4987153;28;20191;-85
2022/07/05 07:56:31;;;;;;;4.10;2.43;;;53.80;5.60;;;;;;4988755;28;20202;-87
2022/07/05 07:58:57;;;;;;;4.45;3.15;;;53.70;4.70;;;;;;4987366;28;20202;-85
2022/07/05 08:01:23;;;;;;;5.65;3.20;;;55.10;9.20;;;;;;4974410;28;20215;-84
2022/07/05 08:03:49;;;;;;;2.33;1.73;;;54.90;7.60;;;;;;4979083;28;20764;-84
2022/07/05 08:06:15;;;;;;;3.10;1.93;;;54.30;5.50;;;;;;4993972;28;20179;-84
2022/07/05 08:08:44;;;;;;;3.33;1.97;;;53.60;4.60;;;;;;4991003;28;20215;-84
2022/07/05 08:11:12;;;;;;;2.90;1.70;;;53.70;4.60;;;;;;4995050;28;20206;-85
2022/07/05 08:13:40;;;;;;;3.73;2.20;;;52.30;2.00;;;;;;4986824;28;20458;-86
2022/07/05 08:16:06;;;;;;;2.80;1.70;;;52.70;3.10;;;;;;4994666;28;20249;-83
2022/07/05 08:21:39;;;;;;;2.33;2.00;;;52.20;3.10;;;;;;4992383;28;20598;-84
2022/07/05 08:24:08;;;;;;;3.37;1.70;;;52.50;3.20;;;;;;4988665;28;20440;-84
2022/07/05 08:26:34;;;;;;;5.13;2.20;;;54.00;6.50;;;;;;4987963;28;20186;-84
2022/07/05 08:29:03;;;;;;;2.43;1.97;;;54.60;7.20;;;;;;4987963;28;20215;-84
2022/07/05 08:31:30;;;;;;;8.07;1.63;;;53.80;4.40;;;;;;4989258;28;20177;-84
2022/07/05 08:33:56;;;;;;;2.23;2.03;;;53.00;2.30;;;;;;4994535;28;20190;-83
2022/07/05 08:36:22;;;;;;;4.40;2.87;;;52.30;1.30;;;;;;4994307;28;20279;-83
2022/07/05 08:38:48;;;;;;;2.50;2.10;;;52.30;1.50;;;;;;4989911;28;20182;-84
2022/07/05 08:41:18;;;;;;;3.67;1.60;;;51.30;1.00;;;;;;4972287;28;20211;-84
2022/07/05 08:43:45;;;;;;;2.40;1.27;;;50.80;1.00;;;;;;4994138;28;20286;-85
2022/07/05 08:46:13;;;;;;;2.13;1.10;;;51.50;1.00;;;;;;4991541;28;20446;-84
2022/07/05 08:48:44;;;;;;;2.33;1.17;;;52.40;2.30;;;;;;4975376;28;20462;-84
2022/07/05 08:51:17;;;;;;;4.63;1.60;;;52.70;2.20;;;;;;4975786;28;20474;-84
2022/07/05 08:53:44;;;;;;;2.00;1.70;;;53.10;2.50;;;;;;4988249;28;20430;-84
2022/07/05 08:56:12;;;;;;;5.30;2.13;;;53.60;2.80;;;;;;4987638;28;20198;-84
2022/07/05 08:58:38;;;;;;;10.97;1.60;;;53.90;3.00;;;;;;4993408;28;20241;-85
2022/07/05 09:01:06;;;;;;;2.13;1.70;;;54.20;3.00;;;;;;4993452;28;20631;-84
2022/07/05 09:03:34;;;;;;;3.60;1.90;;;54.30;3.00;;;;;;4990444;28;20183;-83
2022/07/05 09:06:03;;;;;;;2.70;1.73;;;54.20;2.90;;;;;;4992275;28;20190;-83
2022/07/05 09:08:38;;;;;;;4.53;1.90;;;54.10;2.50;;;;;;4996931;28;20749;-83
2022/07/05 09:11:05;;;;;;;3.83;1.90;;;53.10;1.00;;;;;;5002674;28;20210;-83
2022/07/05 09:13:33;;;;;;;2.30;1.50;;;51.50;1.00;;;;;;5009463;28;20429;-83
2022/07/05 09:15:59;;;;;;;2.93;2.30;;;50.10;1.00;;;;;;4999246;28;20442;-82
2022/07/05 09:18:44;;;;;;;3.10;2.20;;;;;;;;;;5000609;28;20517;-84
2022/07/05 09:21:18;;;;;;;3.00;2.13;;;48.00;1.00;;;;;;5000630;28;20570;-84
2022/07/05 09:23:44;;;;;;;4.03;1.97;;;46.40;1.00;;;;;;4984330;28;20407;-83
2022/07/05 09:26:10;;;;;;;2.20;2.00;;;45.50;1.00;;;;;;4997761;28;20442;-82
2022/07/05 09:28:36;;;;;;;4.10;1.40;;;45.60;1.00;;;;;;5000785;28;20462;-82
2022/07/05 09:31:02;;;;;;;2.00;1.50;;;46.10;1.00;;;;;;5002164;28;20907;-83
2022/07/05 09:33:27;;;;;;;3.43;1.50;;;46.30;1.00;;;;;;5002215;28;20263;-83
2022/07/05 09:35:59;;;;;;;2.50;1.40;;;46.80;1.00;;;;;;5001880;28;21028;-82
2022/07/05 09:38:25;;;;;;;2.43;1.17;;;48.10;1.00;;;;;;4984225;28;20215;-82
2022/07/05 09:40:56;;;;;;;4.33;1.60;;;47.80;1.00;;;;;;5000689;28;20458;-82
2022/07/05 09:43:24;;;;;;;8.00;1.30;;;45.70;1.00;;;;;;5002957;28;20465;-82
2022/07/05 09:45:52;;;;;;;2.40;1.73;;;44.50;1.00;;;;;;5001158;28;20439;-82
2022/07/05 09:48:18;;;;;;;4.80;1.60;;;43.50;1.00;;;;;;5001536;28;20839;-80
2022/07/05 09:50:44;;;;;;;2.80;1.03;;;43.60;1.00;;;;;;5000269;28;20509;-82
2022/07/05 09:53:11;;;;;;;2.57;1.30;;;41.80;1.00;;;;;;5002933;28;20180;-81
2022/07/05 09:55:37;;;;;;;2.93;1.20;;;40.40;1.00;;;;;;5001529;28;20418;-84
2022/07/05 09:58:03;;;;;;;3.03;1.50;;;40.30;1.00;;;;;;5001941;28;20438;-80
2022/07/05 10:00:29;;;;;;;2.03;1.40;;;42.30;1.00;;;;;;4997678;28;20220;-82
2022/07/05 10:03:00;;;;;;;3.70;1.30;;;43.80;1.00;;;;;;4997837;28;20445;-82
2022/07/05 10:05:29;;;;;;;4.37;1.50;;;44.90;1.00;;;;;;4996495;28;20439;-82
2022/07/05 10:07:57;;;;;;;3.23;1.40;;;45.70;1.00;;;;;;4996696;28;20462;-83
2022/07/05 10:10:24;;;;;;;3.07;1.20;;;46.20;1.00;;;;;;4982112;28;20477;-82
2022/07/05 10:12:53;;;;;;;4.20;1.80;;;45.80;1.00;;;;;;5004739;28;20442;-82
2022/07/05 10:15:33;;;;;;;5.83;1.27;;;45.90;1.00;;;;;;5000497;28;20426;-83
2022/07/05 10:18:10;;;;;;;2.30;1.30;;;46.20;1.00;;;;;;4994826;28;20461;-84
2022/07/05 10:20:45;;;;;;;2.90;1.03;;;44.80;1.00;;;;;;4997247;28;20458;-85
2022/07/05 10:23:13;;;;;;;4.17;1.50;;;42.40;1.00;;;;;;4995120;28;20438;-83
2022/07/05 10:25:40;;;;;;;2.23;1.10;;;40.70;1.00;;;;;;4997710;28;20434;-82
2022/07/05 10:28:08;;;;;;;6.00;1.80;;;39.00;1.00;;;;;;4996846;28;20462;-81
2022/07/05 10:30:34;;;;;;;5.20;1.50;;;37.40;1.00;;;;;;4997228;28;20524;-82
2022/07/05 10:33:03;;;;;;;2.37;1.70;;;36.20;1.00;;;;;;4997840;28;20442;-82
2022/07/05 10:35:29;;;;;;;1.80;1.33;;;35.10;1.00;;;;;;4995205;28;20435;-83
2022/07/05 10:37:56;;;;;;;2.90;1.27;;;34.30;1.00;;;;;;4996556;28;20509;-83
2022/07/05 10:40:22;;;;;;;2.93;1.60;;;36.70;1.00;;;;;;4996882;28;20454;-82
2022/07/05 10:42:52;;;;;;;3.93;2.07;;;37.60;1.00;;;;;;4997462;28;20512;-82
2022/07/05 10:45:39;;;;;;;2.70;1.53;;;39.10;99.90;;;;;;4996628;28;20184;-84
2022/07/05 10:48:14;;;;;;;3.30;1.30;;;40.20;1.00;;;;;;4998126;28;20537;-84
2022/07/05 10:50:44;;;;;;;2.33;1.50;;;41.80;1.00;;;;;;4985079;28;20568;-86
2022/07/05 10:53:10;;;;;;;5.60;2.13;;;42.80;1.00;;;;;;5001215;28;20462;-84
2022/07/05 10:55:55;;;;;;;4.33;2.50;;;42.60;1.00;;;;;;4994588;28;20961;-83
2022/07/05 10:58:25;;;;;;;5.70;2.67;;;41.00;1.00;;;;;;4997084;28;20188;-83
2022/07/05 11:01:12;;;;;;;3.30;1.30;;;41.10;1.00;;;;;;5000258;28;20461;-83
2022/07/05 11:03:57;;;;;;;3.00;1.60;;;41.10;1.00;;;;;;4984699;28;21687;-83
2022/07/05 11:06:26;;;;;;;3.33;1.67;;;39.90;1.00;;;;;;5000108;28;20481;-82
2022/07/05 11:09:00;;;;;;;3.87;1.77;;;40.20;1.00;;;;;;4999702;28;20478;-83
2022/07/05 11:11:27;;;;;;;6.17;2.57;;;41.30;1.00;;;;;;4998828;28;20465;-83
2022/07/05 11:13:58;;;;;;;1.43;1.10;;;42.40;1.00;;;;;;5001781;28;20431;-85
2022/07/05 11:16:36;;;;;;;2.20;1.10;;;42.90;1.00;;;;;;5001481;28;20442;-84
2022/07/05 11:19:08;;;;;;;2.80;1.60;;;43.10;1.00;;;;;;4994859;28;20438;-83
2022/07/05 11:21:35;;;;;;;1.40;1.00;;;43.20;1.00;;;;;;4999834;28;20426;-83
2022/07/05 11:24:20;;;;;;;4.57;1.60;;;43.40;1.00;;;;;;5002585;28;20445;-84
2022/07/05 11:26:48;;;;;;;4.20;1.60;;;43.50;1.00;;;;;;5001143;28;20438;-83
2022/07/05 11:29:42;;;;;;;2.87;1.40;;;43.60;1.00;;;;;;4999508;28;20478;-83
2022/07/05 11:32:09;;;;;;;3.53;1.50;;;42.60;1.00;;;;;;5002436;28;20446;-84
2022/07/05 11:34:36;;;;;;;3.80;1.60;;;41.00;1.00;;;;;;4997226;28;20492;-81
2022/07/05 11:37:14;;;;;;;3.80;1.97;;;39.50;1.00;;;;;;4994757;28;20515;-83
2022/07/05 11:39:41;;;;;;;3.10;1.87;;;37.60;1.00;;;;;;4996623;28;20449;-83
2022/07/05 11:42:08;;;;;;;3.80;1.57;;;36.10;1.00;;;;;;4997958;28;20422;-82
2022/07/05 11:44:34;;;;;;;3.07;1.50;;;34.90;1.00;;;;;;4997594;28;20414;-83
2022/07/05 11:47:01;;;;;;;3.97;1.97;;;34.00;1.00;;;;;;4996242;28;20529;-85
2022/07/05 11:49:26;;;;;;;2.50;1.40;;;33.60;1.00;;;;;;5000378;28;20874;-85
2022/07/05 11:52:02;;;;;;;4.13;1.40;;;34.90;1.00;;;;;;4999102;28;20450;-85
2022/07/05 11:54:33;;;;;;;3.40;1.50;;;36.20;1.00;;;;;;4996405;28;20182;-85
2022/07/05 11:56:59;;;;;;;3.07;1.80;;;37.80;1.00;;;;;;4979614;28;20513;-85
2022/07/05 11:59:29;;;;;;;7.60;2.17;;;38.50;1.00;;;;;;4979025;28;20458;-84
2022/07/05 12:01:56;;;;;;;2.63;1.40;;;39.70;2.70;;;;;;4997121;28;20419;-85
2022/07/05 12:04:27;;;;;;;6.17;1.50;;;40.30;4.10;;;;;;4996750;28;20447;-84
2022/07/05 12:06:55;;;;;;;3.87;1.80;;;40.00;3.10;;;;;;4969437;28;20820;-85
2022/07/05 12:09:26;;;;;;;4.13;2.07;;;38.90;1.00;;;;;;4988606;28;20470;-84
2022/07/05 12:14:37;;;;;;;2.70;1.87;;;37.60;1.00;;;;;;4997570;28;20406;-84
2022/07/05 12:17:17;;;;;;;4.13;1.83;;;37.90;1.00;;;;;;4996754;28;20423;-84
2022/07/05 12:19:44;;;;;;;4.80;1.70;;;37.40;1.00;;;;;;4981121;28;20590;-85
2022/07/05 12:22:09;;;;;;;2.93;1.53;;;37.00;1.00;;;;;;4995879;28;20943;-84
2022/07/05 12:24:35;;;;;;;3.60;1.43;;;37.90;1.00;;;;;;4995429;28;20426;-85
2022/07/05 12:27:01;;;;;;;3.77;1.80;;;38.20;1.40;;;;;;4997502;28;20557;-84
2022/07/05 12:29:28;;;;;;;2.33;1.43;;;38.30;2.10;;;;;;4999511;28;20478;-82
2022/07/05 12:32:08;;;;;;;5.90;1.80;;;38.70;2.10;;;;;;4996217;28;20437;-84
2022/07/05 12:34:34;;;;;;;3.20;1.50;;;38.60;2.10;;;;;;4981916;28;20548;-83
2022/07/05 12:36:59;;;;;;;3.07;1.70;;;38.60;2.30;;;;;;4994464;28;20427;-84
2022/07/05 12:39:25;;;;;;;3.10;1.70;;;38.60;1.30;;;;;;4993230;28;20231;-83
2022/07/05 12:41:51;;;;;;;5.83;1.83;;;38.50;1.50;;;;;;4998226;28;20179;-84
2022/07/05 12:44:20;;;;;;;4.60;1.60;;;38.10;1.00;;;;;;4998291;28;20200;-83
2022/07/05 12:46:46;;;;;;;2.20;1.20;;;37.90;1.00;;;;;;4997779;28;20206;-82
2022/07/05 12:49:12;;;;;;;3.07;1.40;;;37.60;1.00;;;;;;4995614;28;20538;-83
2022/07/05 12:51:40;;;;;;;2.90;1.53;;;37.40;1.00;;;;;;4996634;28;20423;-84
2022/07/05 13:00:06;;;;;;;3.10;1.90;;;36.20;1.00;;;;;;4998040;28;20460;-84
2022/07/05 13:02:39;;;;;;;4.63;1.70;;;35.90;1.00;;;;;;4992239;28;20514;-84
2022/07/05 13:05:07;;;;;;;2.03;1.40;;;35.10;1.00;;;;;;4990123;28;20594;-84